Time;durP1;ratioP1;P1;durP2;ratioP2;P2;SDS_P1;SDS_P2;PMS_P1;PMS_P2;Temp;Humidity;BMP_temperature;BMP_pressure;BME280_temperature;BME280_humidity;BME280_pressure;Samples;Min_cycle;Max_cycle;Signal;HPM_P1;HPM_P2
2021/07/20 00:01:47;;;;;;;9.05;3.45;;;17.70;99.90;;;18.33;67.46;101411.47;4978883;28;20245;-78
2021/07/20 00:04:14;;;;;;;9.02;3.05;;;17.80;99.90;;;18.34;67.45;101407.00;4995856;28;20681;-76
2021/07/20 00:06:41;;;;;;;8.32;3.00;;;17.80;99.90;;;18.35;67.32;101403.44;4978384;28;20203;-79
2021/07/20 00:09:10;;;;;;;10.18;3.45;;;17.80;99.90;;;18.34;67.18;101407.88;4978473;28;20225;-79
2021/07/20 00:11:36;;;;;;;11.77;3.60;;;17.70;99.90;;;18.36;67.01;101405.13;4995880;28;20190;-79
2021/07/20 00:14:04;;;;;;;10.80;3.00;;;17.80;99.90;;;18.37;67.03;101412.16;4978509;28;20720;-77
2021/07/20 00:16:31;;;;;;;9.05;3.20;;;17.70;99.90;;;18.38;66.57;101411.19;4978161;28;20249;-77
2021/07/20 00:18:58;;;;;;;9.57;3.05;;;17.80;99.90;;;18.36;65.97;101413.94;4978113;28;20215;-78
2021/07/20 00:21:25;;;;;;;8.32;2.63;;;17.70;99.90;;;18.36;66.40;101413.06;5011338;28;20217;-78
2021/07/20 00:23:52;;;;;;;9.68;3.00;;;17.70;99.90;;;18.36;66.16;101418.38;5010812;28;20198;-78
2021/07/20 00:26:20;;;;;;;9.48;3.28;;;17.80;99.90;;;18.34;65.59;101412.31;4977870;28;20195;-77
2021/07/20 00:28:47;;;;;;;9.82;3.15;;;17.70;99.90;;;18.33;65.92;101416.78;4978339;28;20215;-77
2021/07/20 00:31:14;;;;;;;7.65;2.75;;;17.70;99.90;;;18.34;65.72;101413.16;4995553;28;20198;-78
2021/07/20 00:33:41;;;;;;;8.73;2.95;;;17.80;99.90;;;18.37;65.75;101404.22;5011159;28;20314;-77
2021/07/20 00:36:08;;;;;;;11.05;3.20;;;17.80;99.90;;;18.35;65.60;101406.09;4996164;28;20662;-78
2021/07/20 00:38:35;;;;;;;8.15;2.95;;;17.80;99.90;;;18.33;65.73;101410.63;5011382;28;20215;-77
2021/07/20 00:41:05;;;;;;;10.00;2.97;;;17.70;99.90;;;18.33;65.66;101406.19;4978615;28;20639;-78
2021/07/20 00:43:34;;;;;;;8.63;3.13;;;17.70;99.90;;;18.34;65.82;101401.72;5010953;28;20195;-77
2021/07/20 00:46:01;;;;;;;10.38;3.00;;;17.70;99.90;;;18.33;65.95;101402.66;5011765;28;20198;-77
2021/07/20 00:48:28;;;;;;;10.25;3.10;;;17.80;99.90;;;18.34;65.95;101399.91;4995318;28;20206;-77
2021/07/20 00:50:55;;;;;;;11.77;3.08;;;17.80;99.90;;;18.35;66.05;101408.72;5011157;28;20241;-78
2021/07/20 00:53:24;;;;;;;10.63;3.60;;;17.70;99.90;;;18.31;66.03;101396.59;5013535;28;20242;-77
2021/07/20 00:55:59;;;;;;;9.20;2.95;;;17.80;99.90;;;18.30;66.24;101405.50;4980432;28;20198;-77
2021/07/20 00:58:26;;;;;;;8.63;3.10;;;17.70;99.90;;;18.29;66.18;101401.13;4998096;28;20312;-78
2021/07/20 01:00:55;;;;;;;9.90;3.28;;;17.70;99.90;;;18.28;66.23;101397.63;5008905;28;20275;-77
2021/07/20 01:03:22;;;;;;;8.35;3.42;;;17.70;99.90;;;18.30;66.30;101392.25;5014576;28;20173;-80
2021/07/20 01:05:50;;;;;;;8.60;2.90;;;17.70;99.90;;;18.29;66.34;101398.47;4998855;28;20201;-79
2021/07/20 01:08:20;;;;;;;9.70;3.20;;;17.70;99.90;;;18.28;66.65;101399.44;4993514;28;20215;-78
2021/07/20 01:10:50;;;;;;;9.77;3.50;;;17.70;99.90;;;18.28;66.53;101388.81;5000982;28;20182;-76
2021/07/20 01:13:19;;;;;;;9.57;3.50;;;17.70;99.90;;;18.25;66.76;101391.66;4983401;28;20199;-78
2021/07/20 01:15:50;;;;;;;8.93;3.10;;;17.70;99.90;;;18.25;66.79;101391.66;4981125;28;20253;-78
2021/07/20 01:18:23;;;;;;;9.77;3.03;;;17.70;99.90;;;18.24;66.97;101384.63;4980473;28;20238;-78
2021/07/20 01:20:51;;;;;;;9.65;3.15;;;17.60;99.90;;;18.22;66.83;101384.72;5000851;28;20209;-79
2021/07/20 01:23:31;;;;;;;10.00;3.30;;;17.70;99.90;;;18.20;66.98;101394.56;4998320;28;20542;-78
2021/07/20 01:25:59;;;;;;;8.00;3.00;;;17.60;99.90;;;18.19;67.05;101389.34;4981888;28;20673;-78
2021/07/20 01:28:30;;;;;;;8.80;3.35;;;17.70;99.90;;;18.18;67.14;101387.66;5013373;28;20241;-78
2021/07/20 01:31:05;;;;;;;8.35;3.30;;;17.60;99.90;;;18.16;67.13;101386.88;4985973;28;20195;-79
2021/07/20 01:33:36;;;;;;;11.23;3.30;;;17.60;99.90;;;18.14;67.35;101394.06;4983280;28;20214;-79
2021/07/20 01:36:07;;;;;;;10.07;3.45;;;17.60;99.90;;;18.14;67.35;101388.75;4979578;28;20191;-75
2021/07/20 01:38:37;;;;;;;10.52;2.95;;;17.60;99.90;;;18.11;67.72;101383.66;4982262;28;20700;-79
2021/07/20 01:41:09;;;;;;;9.07;2.80;;;17.60;99.90;;;18.08;67.77;101394.44;5012320;28;20201;-79
2021/07/20 01:43:41;;;;;;;9.23;3.00;;;17.60;99.90;;;18.06;67.87;101388.34;4980992;28;20199;-77
2021/07/20 01:46:10;;;;;;;8.45;3.05;;;17.60;99.90;;;18.05;67.71;101384.84;5012327;28;20194;-77
2021/07/20 01:48:43;;;;;;;8.30;2.78;;;17.50;99.90;;;18.05;67.57;101386.66;4977837;28;20242;-77
2021/07/20 01:51:16;;;;;;;9.75;3.20;;;17.50;99.90;;;18.05;67.93;101384.00;4977741;28;20621;-77
2021/07/20 01:53:48;;;;;;;7.65;2.97;;;17.50;99.90;;;18.02;68.11;101385.03;5010045;28;20225;-78
2021/07/20 01:56:15;;;;;;;10.70;3.50;;;17.50;99.90;;;18.02;68.10;101384.19;4976588;28;20206;-78
2021/07/20 01:58:43;;;;;;;9.10;3.42;;;17.50;99.90;;;18.01;68.04;101385.13;5010125;28;20720;-78
2021/07/20 02:01:32;;;;;;;10.07;3.15;;;17.50;99.90;;;18.01;67.78;101383.34;4996252;28;20265;-78
2021/07/20 02:04:21;;;;;;;9.57;3.35;;;17.50;99.90;;;18.03;67.62;101385.88;4979824;28;20194;-78
2021/07/20 02:09:41;;;;;;;9.25;3.03;;;17.50;99.90;;;18.02;67.95;101389.50;4999472;28;20230;-78
2021/07/20 02:12:14;;;;;;;10.75;3.28;;;17.50;99.90;;;18.02;67.89;101378.91;4983830;28;20195;-79
2021/07/20 02:15:09;;;;;;;9.20;2.90;;;17.50;99.90;;;17.99;67.69;101379.91;4979167;28;20226;-79
2021/07/20 02:17:50;;;;;;;8.65;2.90;;;17.50;99.90;;;18.00;67.67;101386.91;4977123;28;20207;-79
2021/07/20 02:20:22;;;;;;;11.98;3.20;;;17.40;99.90;;;18.00;67.72;101375.47;4977095;28;20199;-78
2021/07/20 02:23:07;;;;;;;8.40;2.85;;;17.50;99.90;;;18.01;67.74;101379.81;4976780;28;20199;-79
2021/07/20 02:25:41;;;;;;;8.15;2.95;;;17.40;99.90;;;18.00;67.86;101386.91;4976721;28;20217;-79
2021/07/20 02:28:11;;;;;;;8.82;2.90;;;17.50;99.90;;;18.01;67.56;101377.16;4976735;28;20241;-78
2021/07/20 02:30:44;;;;;;;9.85;2.63;;;17.40;99.90;;;18.02;67.95;101387.69;4977494;28;20229;-78
2021/07/20 02:33:12;;;;;;;10.73;2.90;;;17.50;99.90;;;18.05;68.09;101382.19;4975809;28;20187;-79
2021/07/20 02:35:40;;;;;;;8.13;2.70;;;17.50;99.90;;;18.06;67.84;101383.06;4993614;28;20221;-79
2021/07/20 02:38:25;;;;;;;9.80;2.85;;;17.50;99.90;;;18.05;68.07;101386.66;4995090;28;20257;-79
2021/07/20 02:40:54;;;;;;;8.82;3.08;;;17.50;99.90;;;18.06;67.98;101383.91;4996346;28;20282;-79
2021/07/20 02:43:25;;;;;;;11.55;3.28;;;17.50;99.90;;;18.07;68.12;101375.03;4977456;28;20555;-78
2021/07/20 02:45:55;;;;;;;10.60;3.28;;;17.50;99.90;;;18.09;68.09;101374.94;4976853;28;20277;-77
2021/07/20 02:48:24;;;;;;;7.15;2.80;;;17.50;99.90;;;18.09;68.10;101380.22;4993744;28;20233;-77
2021/07/20 02:50:52;;;;;;;10.57;3.10;;;17.50;99.90;;;18.09;67.86;101382.88;4976193;28;20194;-78
2021/07/20 02:53:27;;;;;;;8.65;3.20;;;17.50;99.90;;;18.10;67.88;101381.94;4976694;28;20194;-78
2021/07/20 02:56:07;;;;;;;10.50;3.05;;;17.50;99.90;;;18.08;68.16;101378.53;4976341;28;20202;-78
2021/07/20 02:58:44;;;;;;;8.15;3.08;;;17.50;99.90;;;18.08;68.37;101376.75;4976338;28;20222;-78
2021/07/20 03:01:18;;;;;;;9.05;2.72;;;17.50;99.90;;;18.09;68.12;101370.50;4976021;28;20202;-78
2021/07/20 03:03:46;;;;;;;7.57;2.83;;;17.50;99.90;;;18.09;68.24;101373.13;4976002;28;20191;-78
2021/07/20 03:06:15;;;;;;;8.98;2.90;;;17.50;99.90;;;18.10;68.30;101374.00;4995419;28;20218;-76
2021/07/20 03:08:45;;;;;;;11.55;3.08;;;17.50;99.90;;;18.09;68.21;101378.44;4976041;28;20713;-78
2021/07/20 03:11:38;;;;;;;7.95;2.80;;;17.50;99.90;;;18.07;68.49;101376.84;4976324;28;20207;-79
2021/07/20 03:14:12;;;;;;;8.93;3.00;;;17.50;99.90;;;18.06;68.49;101380.41;4975995;28;20237;-78
2021/07/20 03:16:46;;;;;;;9.55;2.92;;;17.50;99.90;;;18.03;68.77;101370.84;4975469;28;20220;-78
2021/07/20 03:19:17;;;;;;;7.47;2.47;;;17.50;99.90;;;18.03;68.63;101372.66;4993661;28;20245;-80
2021/07/20 03:21:50;;;;;;;10.15;3.15;;;17.50;99.90;;;18.03;68.35;101377.94;5008576;28;20194;-79
2021/07/20 03:24:24;;;;;;;10.50;2.90;;;17.40;99.90;;;18.04;68.32;101372.56;5008718;28;20219;-77
2021/07/20 03:26:56;;;;;;;7.95;2.58;;;17.50;99.90;;;18.04;68.21;101372.56;4975932;28;20278;-78
2021/07/20 03:29:26;;;;;;;7.97;2.80;;;17.50;99.90;;;18.05;68.66;101378.72;4975451;28;20210;-78
2021/07/20 03:31:55;;;;;;;7.00;2.58;;;17.50;99.90;;;18.07;68.28;101390.09;5008272;28;20257;-78
2021/07/20 03:34:24;;;;;;;7.20;2.90;;;17.50;99.90;;;18.05;68.30;101379.53;4975453;28;20590;-77
2021/07/20 03:36:54;;;;;;;9.27;2.80;;;17.50;99.90;;;18.05;68.42;101382.19;4975299;28;20658;-78
2021/07/20 03:39:25;;;;;;;8.57;2.75;;;17.50;99.90;;;18.04;68.17;101392.88;5007834;28;20207;-77
2021/07/20 03:41:54;;;;;;;11.63;2.95;;;17.50;99.90;;;18.01;68.46;101404.53;4975339;28;20197;-78
2021/07/20 03:44:23;;;;;;;12.88;3.47;;;17.50;99.90;;;17.97;68.80;101396.81;4978508;28;20195;-78
2021/07/20 03:46:50;;;;;;;11.52;2.92;;;17.50;99.90;;;17.97;68.93;101396.81;4978993;28;20202;-79
2021/07/20 03:49:19;;;;;;;9.25;3.25;;;17.50;99.90;;;17.97;68.87;101399.47;4996749;28;20285;-79
2021/07/20 03:51:49;;;;;;;6.60;2.83;;;17.50;99.90;;;17.97;69.09;101394.16;4979238;28;20199;-78
2021/07/20 03:54:18;;;;;;;11.07;3.03;;;17.40;99.90;;;17.98;nan;101394.09;4978311;28;20218;-78
2021/07/20 03:56:45;;;;;;;7.90;2.78;;;17.40;99.90;;;17.97;68.84;101392.38;4978468;28;20558;-78
2021/07/20 03:59:15;;;;;;;12.73;3.17;;;17.50;99.90;;;18.02;68.81;101403.56;4978125;28;20582;-77
2021/07/20 04:02:19;;;;;;;10.88;3.47;;;17.50;99.90;;;17.98;68.67;101390.59;4978748;28;20668;-77
2021/07/20 04:04:50;;;;;;;9.50;3.53;;;17.50;99.90;;;17.98;68.68;101390.59;4979087;28;20661;-79
2021/07/20 04:07:21;;;;;;;9.52;3.00;;;17.50;99.90;;;17.96;68.81;101395.13;4979909;28;20214;-78
2021/07/20 04:10:07;;;;;;;10.00;2.95;;;17.40;99.90;;;17.94;68.69;101387.25;4987598;28;20205;-80
2021/07/20 04:12:53;;;;;;;9.73;2.85;;;17.40;99.90;;;17.94;68.53;101387.25;5016351;28;20186;-79
2021/07/20 04:15:34;;;;;;;8.60;3.00;;;17.40;99.90;;;17.93;68.43;101382.06;5028862;28;20214;-79
2021/07/20 04:18:13;;;;;;;11.95;3.42;;;17.50;99.90;;;17.92;68.42;101385.63;4979417;28;20261;-79
2021/07/20 04:20:41;;;;;;;8.68;3.08;;;17.40;99.90;;;17.92;68.52;101389.16;4995865;28;20373;-77
2021/07/20 04:23:08;;;;;;;12.02;2.88;;;17.40;99.90;;;17.92;68.85;101383.84;4995520;28;20187;-77
2021/07/20 04:25:44;;;;;;;9.57;2.90;;;17.50;99.90;;;17.90;69.09;101384.88;5011230;28;20661;-76
2021/07/20 04:28:16;;;;;;;11.88;3.47;;;17.40;99.90;;;17.89;69.09;101389.31;4978804;28;20297;-77
2021/07/20 04:30:46;;;;;;;9.77;3.28;;;17.40;99.90;;;17.88;68.99;101387.63;4978501;28;20191;-79
2021/07/20 04:33:16;;;;;;;13.02;4.38;;;17.40;99.90;;;17.87;69.55;101388.56;4979022;28;20684;-79
2021/07/20 04:36:10;;;;;;;11.10;4.05;;;17.40;99.90;;;17.87;69.57;101385.03;4995230;28;20305;-78
2021/07/20 04:38:40;;;;;;;9.13;3.53;;;17.40;99.90;;;17.86;69.58;101384.22;4977957;28;20281;-78
2021/07/20 04:41:08;;;;;;;9.23;3.20;;;17.40;99.90;;;17.87;69.64;101390.34;4977611;28;20187;-79
2021/07/20 04:43:37;;;;;;;11.63;3.33;;;17.50;99.90;;;17.87;70.03;101390.34;4979186;28;20194;-78
2021/07/20 04:46:08;;;;;;;8.63;3.20;;;17.40;99.90;;;17.87;69.44;101388.56;4981569;28;20201;-79
2021/07/20 04:48:40;;;;;;;10.00;3.05;;;17.40;99.90;;;17.89;70.04;101391.97;4981717;28;20214;-79
2021/07/20 04:51:24;;;;;;;9.27;3.50;;;17.50;99.90;;;17.90;69.83;101395.47;5012333;28;20194;-78
2021/07/20 04:53:52;;;;;;;9.68;3.20;;;17.50;99.90;;;17.90;69.91;101401.63;4977665;28;20251;-78
2021/07/20 04:56:22;;;;;;;11.40;3.58;;;17.50;99.90;;;17.92;69.91;101406.81;4978265;28;20828;-77
2021/07/20 04:58:54;;;;;;;9.32;2.97;;;17.50;99.90;;;17.91;69.67;101402.47;4977715;28;20215;-78
2021/07/20 05:01:25;;;;;;;12.05;3.58;;;17.50;99.90;;;17.92;69.86;101398.88;4978620;28;20203;-78
2021/07/20 05:03:57;;;;;;;11.88;3.35;;;17.50;99.90;;;17.94;69.90;101403.16;4981169;28;20572;-79
2021/07/20 05:06:32;;;;;;;11.63;3.08;;;17.50;99.90;;;17.96;69.90;101411.88;4997809;28;20190;-77
2021/07/20 05:09:00;;;;;;;12.73;3.40;;;17.60;99.90;;;17.96;69.81;101403.06;4995301;28;20590;-77
2021/07/20 05:11:28;;;;;;;10.02;3.47;;;17.60;99.90;;;17.97;69.94;101405.63;4994994;28;20190;-78
2021/07/20 05:13:55;;;;;;;10.02;3.38;;;17.60;99.90;;;17.99;70.27;101406.41;4977657;28;20219;-77
2021/07/20 05:16:26;;;;;;;9.25;3.38;;;17.60;99.90;;;17.99;70.15;101405.53;4994763;28;20211;-78
2021/07/20 05:18:59;;;;;;;11.43;3.47;;;17.60;99.90;;;17.96;69.67;101406.59;5011330;28;20676;-78
2021/07/20 05:21:46;;;;;;;8.38;3.40;;;17.60;99.90;;;17.96;70.44;101411.00;4996725;28;20212;-78
2021/07/20 05:24:17;;;;;;;8.48;3.20;;;17.60;99.90;;;17.99;70.06;101410.84;4979641;28;20277;-78
2021/07/20 05:26:49;;;;;;;9.50;3.08;;;17.70;99.90;;;18.03;70.31;101417.69;5012769;28;20191;-78
2021/07/20 05:29:21;;;;;;;11.23;3.17;;;17.70;99.90;;;18.02;70.37;101415.97;4980134;28;20214;-78
2021/07/20 05:32:11;;;;;;;8.10;2.90;;;17.70;99.90;;;18.05;70.17;101416.63;4981373;28;20266;-77
2021/07/20 05:34:38;;;;;;;9.95;2.97;;;17.80;99.90;;;18.08;70.17;101411.19;4999508;28;20650;-77
2021/07/20 05:37:05;;;;;;;10.15;3.40;;;17.80;99.90;;;18.12;70.54;101423.31;4982029;28;20618;-77
2021/07/20 05:39:44;;;;;;;12.93;3.10;;;17.80;99.90;;;18.13;70.09;101413.56;4982918;28;20301;-77
2021/07/20 05:42:18;;;;;;;9.52;3.15;;;17.80;99.90;;;18.13;70.00;101417.06;4980157;28;20194;-78
2021/07/20 05:44:47;;;;;;;9.75;3.20;;;17.80;99.90;;;18.17;69.91;101420.41;4977560;28;20222;-78
2021/07/20 05:47:17;;;;;;;7.45;3.00;;;17.90;99.90;;;18.17;70.10;101417.75;4994440;28;20195;-79
2021/07/20 05:49:44;;;;;;;10.18;3.42;;;17.90;99.90;;;18.22;70.02;101411.22;4977209;28;20341;-77
2021/07/20 05:52:15;;;;;;;9.90;3.33;;;17.90;99.90;;;18.25;69.95;101408.41;4977138;28;20202;-78
2021/07/20 05:54:47;;;;;;;8.73;2.97;;;18.00;99.90;;;18.29;69.61;101415.22;4993751;28;20234;-78
2021/07/20 05:57:27;;;;;;;9.68;3.00;;;18.00;99.90;;;18.32;69.78;101415.06;5010697;28;20191;-78
2021/07/20 06:00:22;;;;;;;9.85;3.30;;;18.00;99.90;;;18.38;69.74;101414.72;4995839;28;20195;-77
2021/07/20 06:03:00;;;;;;;9.50;2.83;;;18.10;99.90;;;18.42;69.88;101418.91;4979027;28;20205;-78
2021/07/20 06:05:28;;;;;;;12.68;3.65;;;18.10;99.90;;;18.46;69.36;101419.59;4978820;28;20194;-78
2021/07/20 06:07:56;;;;;;;10.48;3.13;;;18.20;99.90;;;18.44;69.75;101413.50;4977945;28;20306;-79
2021/07/20 06:10:24;;;;;;;9.18;3.38;;;18.20;99.90;;;18.47;69.63;101424.78;4996644;28;20274;-78
2021/07/20 06:12:53;;;;;;;8.02;2.90;;;18.20;99.90;;;18.45;69.61;101431.97;4977778;28;20641;-78
2021/07/20 06:15:23;;;;;;;10.50;3.28;;;18.20;99.90;;;18.45;69.52;101428.50;5010548;28;20238;-78
2021/07/20 06:17:50;;;;;;;8.95;3.05;;;18.20;99.90;;;18.51;69.60;101428.13;4977476;28;20219;-77
2021/07/20 06:20:19;;;;;;;12.43;3.35;;;18.30;99.90;;;18.62;69.53;101428.38;4977276;28;20224;-77
2021/07/20 06:22:52;;;;;;;13.95;3.30;;;18.40;99.90;;;18.68;69.12;101438.59;4995000;28;20708;-77
2021/07/20 06:25:25;;;;;;;9.88;3.13;;;18.40;99.90;;;18.74;69.22;101438.22;4977698;28;20556;-79
2021/07/20 06:27:54;;;;;;;11.15;3.03;;;18.50;99.90;;;18.72;68.99;101433.00;4994653;28;20207;-78
2021/07/20 06:30:21;;;;;;;8.30;2.72;;;18.40;99.90;;;18.67;68.98;101426.28;4977477;28;20209;-77
2021/07/20 06:32:51;;;;;;;8.07;3.03;;;18.40;99.90;;;18.68;69.29;101430.63;5009856;28;20191;-78
2021/07/20 06:35:21;;;;;;;9.38;3.10;;;18.40;99.90;;;18.73;68.94;101437.38;4977815;28;20215;-78
2021/07/20 06:37:50;;;;;;;11.55;3.60;;;18.50;99.90;;;18.79;68.73;101441.44;4994157;28;20187;-77
2021/07/20 06:40:20;;;;;;;7.47;2.90;;;18.60;99.90;;;18.82;68.37;101440.44;4994845;28;20190;-78
2021/07/20 06:42:49;;;;;;;9.57;3.13;;;18.60;99.90;;;18.79;68.37;101446.75;4977418;28;20250;-78
2021/07/20 06:45:17;;;;;;;9.68;3.20;;;18.50;99.90;;;18.80;68.49;101444.97;4978197;28;20187;-78
2021/07/20 06:47:47;;;;;;;9.48;2.90;;;18.50;99.90;;;18.83;68.08;101445.63;4996378;28;20274;-77
2021/07/20 06:50:18;;;;;;;9.13;3.13;;;18.60;99.90;;;18.90;68.22;101438.16;4995613;28;20270;-76
2021/07/20 06:52:49;;;;;;;9.20;2.90;;;18.60;99.90;;;18.99;68.13;101443.75;4978200;28;20201;-78
2021/07/20 06:55:17;;;;;;;9.90;2.80;;;18.70;99.90;;;19.01;67.47;101446.31;4977750;28;20223;-77
2021/07/20 06:57:47;;;;;;;12.32;3.30;;;18.70;99.90;;;19.04;67.08;101446.97;4977905;28;20197;-78
2021/07/20 07:00:18;;;;;;;9.10;3.20;;;18.70;99.90;;;19.12;67.06;101454.50;5010790;28;20198;-78
2021/07/20 07:02:52;;;;;;;14.57;3.30;;;18.80;99.90;;;19.19;66.54;101454.00;4979017;28;20305;-78
2021/07/20 07:05:22;;;;;;;9.52;2.97;;;18.90;99.90;;;19.26;66.36;101458.00;4979413;28;20203;-78
2021/07/20 07:07:51;;;;;;;13.05;3.63;;;19.00;99.90;;;19.30;66.15;101453.41;5012968;28;20198;-78
2021/07/20 07:10:19;;;;;;;10.25;2.92;;;19.10;99.90;;;19.37;65.73;101457.38;4980973;28;20199;-77
2021/07/20 07:12:51;;;;;;;10.15;2.92;;;19.10;99.90;;;19.45;65.43;101453.31;4983697;28;20203;-79
2021/07/20 07:15:20;;;;;;;7.40;2.50;;;19.30;99.90;;;19.57;65.07;101452.53;4997272;28;20261;-78
2021/07/20 07:17:50;;;;;;;8.13;2.38;;;19.40;99.90;;;19.59;64.26;101453.28;4996730;28;20198;-77
2021/07/20 07:20:20;;;;;;;10.68;3.00;;;19.40;99.90;;;19.65;64.28;101454.69;4999741;28;20315;-78
2021/07/20 07:22:50;;;;;;;10.52;2.95;;;19.50;99.90;;;19.74;63.94;101462.94;4985332;28;20198;-78
2021/07/20 07:25:19;;;;;;;8.15;2.50;;;19.70;99.90;;;19.77;63.71;101459.25;4999586;28;20185;-79
2021/07/20 07:27:49;;;;;;;7.03;2.47;;;19.90;99.90;;;19.78;62.58;101461.81;4984014;28;20199;-79
2021/07/20 07:30:18;;;;;;;8.77;2.78;;;19.80;99.90;;;19.76;61.91;101455.72;4984029;28;20199;-79
2021/07/20 07:32:45;;;;;;;8.52;2.50;;;19.80;99.90;;;19.71;61.55;101456.97;5000139;28;20197;-78
2021/07/20 07:35:13;;;;;;;9.18;2.78;;;19.70;99.90;;;19.72;61.08;101456.03;5001047;28;20270;-79
2021/07/20 07:37:42;;;;;;;7.88;3.03;;;19.80;99.90;;;19.75;61.15;101459.34;5000186;28;20187;-78
2021/07/20 07:40:13;;;;;;;9.40;2.80;;;19.70;99.90;;;19.69;60.70;101459.72;4999255;28;20194;-78
2021/07/20 07:42:42;;;;;;;9.55;2.50;;;19.60;99.90;;;19.61;60.36;101458.50;4999476;28;20406;-77
2021/07/20 07:45:13;;;;;;;8.35;2.55;;;19.50;99.90;;;19.55;60.25;101453.56;4982177;28;20198;-78
2021/07/20 07:47:43;;;;;;;8.18;2.50;;;19.40;99.90;;;19.54;59.44;101458.03;4983426;28;20676;-78
2021/07/20 07:50:12;;;;;;;8.88;2.60;;;19.30;99.90;;;19.63;59.25;101462.78;5001459;28;20183;-78
2021/07/20 07:52:41;;;;;;;10.85;2.75;;;19.40;99.90;;;19.68;59.18;101460.69;4983963;28;20639;-77
2021/07/20 07:55:13;;;;;;;10.48;2.55;;;19.50;99.90;;;19.74;58.95;101456.78;5016893;28;20199;-78
2021/07/20 07:57:43;;;;;;;8.52;2.40;;;19.50;99.90;;;19.82;58.71;101462.47;4998528;28;20179;-77
2021/07/20 08:00:12;;;;;;;8.57;2.45;;;19.60;99.90;;;19.88;58.38;101457.59;5001893;28;20191;-79
2021/07/20 08:02:41;;;;;;;10.85;2.70;;;19.60;99.90;;;19.89;58.03;101463.78;5003486;28;20187;-78
2021/07/20 08:05:10;;;;;;;6.60;2.10;;;19.70;99.90;;;19.93;57.43;101460.81;4986899;28;20225;-78
2021/07/20 08:07:39;;;;;;;8.93;2.78;;;19.70;99.90;;;19.95;56.65;101469.56;5003549;28;20187;-78
2021/07/20 08:10:11;;;;;;;7.22;2.53;;;19.70;99.90;;;20.04;56.16;101461.94;5002407;28;20194;-78
2021/07/20 08:12:42;;;;;;;12.15;3.78;;;19.80;99.90;;;20.22;55.31;101444.81;5003113;28;20183;-78
2021/07/20 08:15:10;;;;;;;9.98;3.50;;;20.00;99.90;;;20.42;54.73;101452.31;4985952;28;20195;-79
2021/07/20 08:17:38;;;;;;;7.53;2.72;;;20.30;99.90;;;20.60;53.48;101457.28;5003866;28;20219;-78
2021/07/20 08:20:08;;;;;;;7.22;2.67;;;20.50;99.90;;;20.79;52.57;101451.56;5021273;28;20205;-78
2021/07/20 08:22:36;;;;;;;9.27;2.72;;;20.70;99.90;;;20.93;52.09;101448.84;5005701;28;20197;-79
2021/07/20 08:25:10;;;;;;;7.65;2.65;;;21.00;99.90;;;21.09;51.44;101449.50;4998996;28;20203;-77
2021/07/20 08:27:44;;;;;;;7.85;2.50;;;21.20;99.90;;;21.17;50.72;101446.31;4981034;28;20221;-78
2021/07/20 08:30:13;;;;;;;7.45;2.45;;;21.30;99.90;;;21.26;50.12;101446.50;4998901;28;20205;-78
2021/07/20 08:32:51;;;;;;;8.50;2.63;;;21.50;99.90;;;21.30;50.35;101447.16;4982221;28;20226;-77
2021/07/20 08:35:25;;;;;;;9.88;2.88;;;21.60;99.90;;;21.34;50.64;101443.31;4999051;28;20193;-79
2021/07/20 08:37:54;;;;;;;8.25;2.50;;;21.60;99.90;;;21.30;50.54;101453.31;4984995;28;20223;-78
2021/07/20 08:40:46;;;;;;;7.68;2.30;;;21.60;99.90;;;21.17;50.37;101448.00;5017895;28;20194;-77
2021/07/20 08:43:28;;;;;;;8.55;2.60;;;21.40;99.90;;;21.01;50.40;101449.19;5003705;28;20258;-78
2021/07/20 08:46:31;;;;;;;9.60;2.67;;;21.30;99.90;;;20.91;50.85;101454.25;5002747;28;20191;-79
2021/07/20 08:49:15;;;;;;;11.13;3.70;;;21.10;99.90;;;20.82;51.14;101451.34;5000601;28;20210;-77
2021/07/20 08:51:55;;;;;;;10.73;3.67;;;21.00;99.90;;;20.72;51.66;101453.78;4985885;28;20199;-78
2021/07/20 08:54:29;;;;;;;10.07;2.70;;;20.80;99.90;;;20.59;51.84;101452.94;4986053;28;20205;-79
2021/07/20 08:57:03;;;;;;;7.50;2.60;;;20.60;99.90;;;20.45;51.62;101452.13;5004659;28;20215;-76
2021/07/20 08:59:40;;;;;;;8.90;2.63;;;20.50;99.90;;;20.43;51.83;101446.91;4979882;28;20563;-76
2021/07/20 09:02:40;;;;;;;6.55;2.30;;;20.40;99.90;;;20.46;52.48;101448.53;4978530;28;20203;-75
2021/07/20 09:05:17;;;;;;;8.60;2.55;;;20.50;99.90;;;20.47;53.74;101436.91;5010363;28;20606;-77
2021/07/20 09:07:58;;;;;;;6.78;2.60;;;20.50;99.90;;;20.49;54.91;101446.50;5010842;28;20207;-76
2021/07/20 09:10:33;;;;;;;9.77;2.58;;;20.60;99.90;;;20.53;55.99;101439.19;4978845;28;20661;-77
2021/07/20 09:13:10;;;;;;;7.72;2.65;;;20.60;99.90;;;20.59;56.25;101444.09;4979900;28;20194;-76
2021/07/20 09:15:45;;;;;;;9.27;2.85;;;20.60;99.90;;;20.61;55.62;101450.16;5018689;28;20209;-78
2021/07/20 09:18:22;;;;;;;8.35;2.58;;;20.60;99.90;;;20.58;55.57;101451.19;4996582;28;20234;-78
2021/07/20 09:20:55;;;;;;;8.90;2.72;;;20.60;99.90;;;20.66;55.27;101450.69;4996114;28;20227;-78
2021/07/20 09:23:30;;;;;;;8.57;2.42;;;20.70;99.90;;;20.84;54.92;101452.97;4978948;28;20676;-77
2021/07/20 09:26:07;;;;;;;7.03;2.30;;;20.90;99.90;;;21.05;54.87;101451.50;4996385;28;20182;-78
2021/07/20 09:28:41;;;;;;;8.57;2.65;;;21.10;99.90;;;21.28;54.57;101449.94;4978395;28;20214;-78
2021/07/20 09:31:21;;;;;;;9.25;2.60;;;21.40;99.90;;;21.49;54.12;101444.88;4995845;28;20190;-78
2021/07/20 09:33:59;;;;;;;9.95;2.70;;;21.70;99.90;;;21.61;54.11;101442.22;4978583;28;20209;-77
2021/07/20 09:36:33;;;;;;;8.05;2.42;;;21.90;99.90;;;21.62;53.89;101438.56;4995283;28;20293;-78
2021/07/20 09:39:35;;;;;;;7.82;2.40;;;22.00;99.90;;;21.57;53.71;101446.03;4977971;28;20249;-77
2021/07/20 09:42:14;;;;;;;8.18;2.50;;;22.00;99.90;;;21.45;53.74;101452.22;4996157;28;20170;-77
2021/07/20 09:44:45;;;;;;;7.22;2.40;;;21.80;99.90;;;;;;5011338;28;20273;-77
2021/07/20 09:47:26;;;;;;;8.80;2.92;;;21.70;99.90;;;21.25;53.64;101462.59;4977246;28;20202;-76
2021/07/20 09:50:09;;;;;;;7.45;2.28;;;21.50;99.90;;;21.17;52.88;101452.47;4978163;28;20222;-78
2021/07/20 09:53:09;;;;;;;8.32;2.10;;;21.40;99.90;;;21.13;52.59;101459.00;4977567;28;20187;-78
2021/07/20 09:55:52;;;;;;;5.82;2.00;;;21.40;99.90;;;21.12;52.56;101446.63;5011488;28;20293;-77
2021/07/20 09:58:31;;;;;;;7.15;2.28;;;21.30;99.90;;;21.15;52.28;101451.72;4978835;28;20219;-78
2021/07/20 10:01:15;;;;;;;8.73;2.65;;;21.40;99.90;;;21.22;52.35;101452.19;4997358;28;20199;-79
2021/07/20 10:03:56;;;;;;;8.43;2.67;;;21.50;99.90;;;21.22;52.12;101450.34;4995711;28;20224;-78
2021/07/20 10:06:36;;;;;;;6.50;2.40;;;21.50;99.90;;;21.17;52.17;101451.66;4996393;28;20214;-78
2021/07/20 10:09:09;;;;;;;7.22;2.55;;;21.40;99.90;;;21.12;52.74;101446.63;4980448;28;20215;-78
2021/07/20 10:11:46;;;;;;;8.73;2.70;;;21.40;99.90;;;21.12;53.26;101451.94;4980292;28;20198;-77
2021/07/20 10:14:37;;;;;;;10.15;2.60;;;21.40;99.90;;;21.13;53.14;101451.00;4997909;28;20487;-78
2021/07/20 10:17:18;;;;;;;7.72;2.30;;;21.40;99.90;;;21.14;53.56;101442.03;4998006;28;20214;-77
2021/07/20 10:19:52;;;;;;;8.65;2.50;;;21.50;99.90;;;21.17;53.86;101446.31;4981988;28;20224;-78
2021/07/20 10:22:29;;;;;;;9.80;2.60;;;21.50;99.90;;;21.24;54.06;101447.56;4984916;28;20194;-79
2021/07/20 10:25:05;;;;;;;8.40;2.42;;;21.60;99.90;;;21.22;54.09;101444.19;5009778;28;20175;-79
2021/07/20 10:27:44;;;;;;;7.28;2.17;;;21.60;99.90;;;21.28;53.73;101444.59;4999441;28;20293;-82
2021/07/20 10:30:16;;;;;;;7.80;1.90;;;21.60;99.90;;;21.32;53.39;101446.06;5018198;28;20197;-81
2021/07/20 10:32:56;;;;;;;8.75;2.67;;;21.70;99.90;;;21.35;52.98;101448.50;5018228;28;20175;-81
2021/07/20 10:35:34;;;;;;;8.60;2.33;;;21.70;99.90;;;21.26;53.76;101443.00;5001435;28;20198;-80
2021/07/20 10:38:07;;;;;;;8.32;2.10;;;21.50;99.90;;;21.12;54.42;101452.81;5000853;28;20221;-81